Aviation Digital Data Service (ADDS)

Output produced by METARs form (0328 UTC 25 October 2014)
found at http://aviationweather.gov/adds/metars/
 
KJAX 242329Z 2500/2524 00000KT P6SM FEW200 
     FM251300 34005KT P6SM SKC 
     FM251800 01008KT P6SM SKC